Time;durP1;ratioP1;P1;durP2;ratioP2;P2;SDS_P1;SDS_P2;PMS_P1;PMS_P2;Temp;Humidity;BMP_temperature;BMP_pressure;BME280_temperature;BME280_humidity;BME280_pressure;Samples;Min_cycle;Max_cycle;Signal;HPM_P1;HPM_P2
2024/02/22 00:01:18;;;;;;;7.28;3.83;;;;;;;;;;5967594;24;20014;-79
2024/02/22 00:03:44;;;;;;;8.38;3.50;;;;;;;;;;5968170;24;20008;-81
2024/02/22 00:06:10;;;;;;;6.00;3.03;;;;;;;;;;5966855;24;20079;-79
2024/02/22 00:08:35;;;;;;;10.70;4.13;;;;;;;;;;5992073;24;20385;-79
2024/02/22 00:11:04;;;;;;;8.05;3.70;;;;;;;;;;5992814;24;20069;-78
2024/02/22 00:13:30;;;;;;;8.38;3.40;;;;;;;;;;5966458;24;20008;-79
2024/02/22 00:15:56;;;;;;;9.93;3.80;;;;;;;;;;5992858;24;20007;-79
2024/02/22 00:18:21;;;;;;;7.05;3.60;;;;;;;;;;5967814;24;20108;-80
2024/02/22 00:20:47;;;;;;;8.88;3.65;;;;;;;;;;5992681;24;20026;-81
2024/02/22 00:23:13;;;;;;;10.45;3.47;;;;;;;;;;5992740;24;20079;-78
2024/02/22 00:25:42;;;;;;;9.25;3.90;;;;;;;;;;5968085;24;20039;-79
2024/02/22 00:28:10;;;;;;;12.02;4.80;;;;;;;;;;5968336;24;20091;-80
2024/02/22 00:30:36;;;;;;;10.32;3.75;;;;;;;;;;5965249;24;20407;-77
2024/02/22 00:33:02;;;;;;;7.72;3.05;;;;;;;;;;5990203;24;20015;-76
2024/02/22 00:35:28;;;;;;;10.90;3.35;;;;;;;;;;5966274;24;20008;-77
2024/02/22 00:37:54;;;;;;;8.82;3.47;;;;;;;;;;5989593;24;20008;-78
2024/02/22 00:40:22;;;;;;;5.22;2.58;;;;;;;;;;5990928;24;20042;-77
2024/02/22 00:42:47;;;;;;;5.80;2.97;;;;;;;;;;5965601;24;20035;-77
2024/02/22 00:45:13;;;;;;;5.10;2.90;;;;;;;;;;5966384;24;20004;-79
2024/02/22 00:47:39;;;;;;;4.60;2.78;;;;;;;;;;5942643;24;20350;-78
2024/02/22 00:50:08;;;;;;;6.18;2.60;;;;;;;;;;5965954;24;20063;-78
2024/02/22 00:52:37;;;;;;;5.88;3.03;;;;;;;;;;5990444;24;20466;-78
2024/02/22 00:55:03;;;;;;;5.90;2.55;;;;;;;;;;5966024;23;20103;-79
2024/02/22 00:57:30;;;;;;;5.40;2.17;;;;;;;;;;5966131;24;20019;-79
2024/02/22 00:59:55;;;;;;;4.55;2.50;;;;;;;;;;5943800;24;20012;-79
2024/02/22 01:02:21;;;;;;;6.38;2.70;;;;;;;;;;5991565;24;20015;-78
2024/02/22 01:04:47;;;;;;;6.78;2.45;;;;;;;;;;5966306;24;20395;-80
2024/02/22 01:07:14;;;;;;;6.32;2.45;;;;;;;;;;5965944;24;20039;-80
2024/02/22 01:09:41;;;;;;;5.10;3.20;;;;;;;;;;5965524;24;20086;-78
2024/02/22 01:12:08;;;;;;;7.07;3.13;;;;;;;;;;5965332;24;20012;-78
2024/02/22 01:14:34;;;;;;;6.40;2.75;;;;;;;;;;5965012;24;20008;-77
2024/02/22 01:17:02;;;;;;;6.47;2.67;;;;;;;;;;5989563;24;20087;-77
2024/02/22 01:19:28;;;;;;;7.65;3.33;;;;;;;;;;5964982;24;20008;-77
2024/02/22 01:21:54;;;;;;;10.30;3.00;;;;;;;;;;5989941;24;20004;-79
2024/02/22 01:24:19;;;;;;;5.25;2.70;;;;;;;;;;5990628;24;20292;-77
2024/02/22 01:26:45;;;;;;;7.43;2.70;;;;;;;;;;5964865;24;20042;-77
2024/02/22 01:29:11;;;;;;;6.20;2.70;;;;;;;;;;5965238;24;20060;-79
2024/02/22 01:31:36;;;;;;;6.60;2.85;;;;;;;;;;5989887;24;20076;-79
2024/02/22 01:34:02;;;;;;;4.53;2.90;;;;;;;;;;5989926;24;20004;-79
2024/02/22 01:36:28;;;;;;;7.05;3.28;;;;;;;;;;5989486;24;20330;-80
2024/02/22 01:38:53;;;;;;;9.32;2.80;;;;;;;;;;5965456;24;20012;-80
2024/02/22 01:41:19;;;;;;;8.70;3.55;;;;;;;;;;5989718;24;20338;-78
2024/02/22 01:43:46;;;;;;;9.45;2.90;;;;;;;;;;5965146;24;20019;-78
2024/02/22 01:46:12;;;;;;;5.28;2.55;;;;;;;;;;5990653;24;20012;-78
2024/02/22 01:48:39;;;;;;;4.97;2.58;;;;;;;;;;5990271;24;20103;-78
2024/02/22 01:51:07;;;;;;;5.00;2.88;;;;;;;;;;5942621;24;20004;-78
2024/02/22 01:53:34;;;;;;;7.60;3.00;;;;;;;;;;5989769;23;20063;-79
2024/02/22 01:56:01;;;;;;;4.82;2.42;;;;;;;;;;5993195;23;20051;-79
2024/02/22 01:58:33;;;;;;;7.20;2.75;;;;;;;;;;6017692;23;20003;-78
2024/02/22 02:01:00;;;;;;;6.63;2.53;;;;;;;;;;5992803;23;20011;-78
2024/02/22 02:03:27;;;;;;;5.97;2.53;;;;;;;;;;6017258;23;20034;-78
2024/02/22 02:05:53;;;;;;;7.68;3.22;;;;;;;;;;5993073;23;20039;-78
2024/02/22 02:08:19;;;;;;;6.40;2.38;;;;;;;;;;5993521;23;20011;-77
2024/02/22 02:10:47;;;;;;;7.03;2.72;;;;;;;;;;5993048;23;20026;-77
2024/02/22 02:13:13;;;;;;;5.40;2.72;;;;;;;;;;5992862;23;20007;-78
2024/02/22 02:15:39;;;;;;;7.78;2.78;;;;;;;;;;5992725;23;20181;-78
2024/02/22 02:18:06;;;;;;;3.20;2.42;;;;;;;;;;5969702;23;20018;-78
2024/02/22 02:20:55;;;;;;;7.63;2.85;;;;;;;;;;5991998;23;20015;-78
2024/02/22 02:23:48;;;;;;;4.35;2.40;;;;;;;;;;5993068;23;20434;-79
2024/02/22 02:26:15;;;;;;;3.75;2.78;;;;;;;;;;6018062;23;20022;-77
2024/02/22 02:28:43;;;;;;;5.05;2.50;;;;;;;;;;6018503;23;20004;-82
2024/02/22 02:31:11;;;;;;;4.30;2.63;;;;;;;;;;5995933;23;20003;-79
2024/02/22 02:33:40;;;;;;;5.45;2.45;;;;;;;;;;5996545;23;20015;-79
2024/02/22 02:36:07;;;;;;;6.35;2.38;;;;;;;;;;5997439;23;20016;-78
2024/02/22 02:38:33;;;;;;;4.93;2.42;;;;;;;;;;6017215;23;20012;-77
2024/02/22 02:40:59;;;;;;;4.47;2.50;;;;;;;;;;5992973;23;20007;-80
2024/02/22 02:43:24;;;;;;;4.47;2.00;;;;;;;;;;6017504;23;20003;-77
2024/02/22 02:45:51;;;;;;;4.32;2.13;;;;;;;;;;6013096;23;20011;-79
2024/02/22 02:48:19;;;;;;;6.13;2.75;;;;;;;;;;6017471;23;20075;-77
2024/02/22 02:50:47;;;;;;;4.50;2.30;;;;;;;;;;5992319;23;20043;-78
2024/02/22 02:53:13;;;;;;;4.90;1.95;;;;;;;;;;5993155;23;20481;-76
2024/02/22 02:55:40;;;;;;;4.63;1.92;;;;;;;;;;5947516;24;20024;-78
2024/02/22 02:58:05;;;;;;;6.93;2.28;;;;;;;;;;5991570;24;20024;-77
2024/02/22 03:00:32;;;;;;;3.08;1.67;;;;;;;;;;5990835;24;20068;-79
2024/02/22 03:02:58;;;;;;;3.92;1.70;;;;;;;;;;5966809;24;20059;-77
2024/02/22 03:05:28;;;;;;;3.88;2.15;;;;;;;;;;5990964;24;20401;-77
2024/02/22 03:07:54;;;;;;;2.80;1.67;;;;;;;;;;5991595;24;20008;-78
2024/02/22 03:10:21;;;;;;;3.58;1.70;;;;;;;;;;5965998;24;20456;-78
2024/02/22 03:12:47;;;;;;;2.95;1.50;;;;;;;;;;5966587;24;20045;-78
2024/02/22 03:15:13;;;;;;;3.70;1.95;;;;;;;;;;5967434;24;20008;-78
2024/02/22 03:17:39;;;;;;;2.97;1.55;;;;;;;;;;5966661;24;20015;-78
2024/02/22 03:20:10;;;;;;;8.57;2.45;;;;;;;;;;5966925;24;20016;-79
2024/02/22 03:22:37;;;;;;;2.47;1.67;;;;;;;;;;5992210;24;20033;-77
2024/02/22 03:25:05;;;;;;;2.97;1.30;;;;;;;;;;5991540;24;20326;-77
2024/02/22 03:27:32;;;;;;;2.67;1.63;;;;;;;;;;5966636;24;20008;-78
2024/02/22 03:29:58;;;;;;;2.10;1.10;;;;;;;;;;5966879;24;20439;-78
2024/02/22 03:32:24;;;;;;;3.60;1.90;;;;;;;;;;5991666;24;20338;-76
2024/02/22 03:34:49;;;;;;;1.33;1.17;;;;;;;;;;5991422;24;20032;-77
2024/02/22 03:37:15;;;;;;;3.13;1.10;;;;;;;;;;5968210;24;20058;-78
2024/02/22 03:39:44;;;;;;;2.13;1.23;;;;;;;;;;5966523;24;20012;-76
2024/02/22 03:42:09;;;;;;;2.92;1.33;;;;;;;;;;5966469;24;20067;-79
2024/02/22 03:44:35;;;;;;;2.83;1.80;;;;;;;;;;5966017;24;20015;-77
2024/02/22 03:47:00;;;;;;;3.53;1.60;;;;;;;;;;5990868;24;20000;-77
2024/02/22 03:49:27;;;;;;;1.92;1.17;;;;;;;;;;5966610;24;20011;-78
2024/02/22 03:51:53;;;;;;;3.47;1.58;;;;;;;;;;5966663;24;20032;-77
2024/02/22 03:54:19;;;;;;;1.98;1.25;;;;;;;;;;5965139;23;20023;-78
2024/02/22 03:56:45;;;;;;;5.13;1.55;;;;;;;;;;5965918;24;20075;-78
2024/02/22 03:59:10;;;;;;;4.43;1.48;;;;;;;;;;5990930;24;20076;-78
2024/02/22 04:01:36;;;;;;;1.98;1.15;;;;;;;;;;5990894;24;20008;-77
2024/02/22 04:04:02;;;;;;;2.60;1.38;;;;;;;;;;5966722;24;20004;-80
2024/02/22 04:06:29;;;;;;;5.10;1.38;;;;;;;;;;5990937;24;20032;-78
2024/02/22 04:08:57;;;;;;;3.15;1.50;;;;;;;;;;5990889;24;20031;-77
2024/02/22 04:11:23;;;;;;;3.10;1.10;;;;;;;;;;5966486;24;20031;-79
2024/02/22 04:13:49;;;;;;;14.55;1.92;;;;;;;;;;5965639;24;20348;-78
2024/02/22 04:16:16;;;;;;;4.00;1.60;;;;;;;;;;5965749;24;20027;-78
2024/02/22 04:18:42;;;;;;;3.45;1.23;;;;;;;;;;5965982;24;20013;-78
2024/02/22 04:21:08;;;;;;;2.10;1.42;;;;;;;;;;5966100;24;20012;-77
2024/02/22 04:23:35;;;;;;;4.28;1.70;;;;;;;;;;5966233;24;19995;-77
2024/02/22 04:26:02;;;;;;;2.97;1.45;;;;;;;;;;5966553;24;20013;-78
2024/02/22 04:28:27;;;;;;;1.98;1.38;;;;;;;;;;5965463;24;20004;-78
2024/02/22 04:30:53;;;;;;;2.25;1.30;;;;;;;;;;5965654;24;20010;-78
2024/02/22 04:33:20;;;;;;;2.90;1.92;;;;;;;;;;5966016;24;20000;-79
2024/02/22 04:35:46;;;;;;;5.43;1.33;;;;;;;;;;5991241;24;20015;-79
2024/02/22 04:38:11;;;;;;;3.60;1.80;;;;;;;;;;5966047;24;20004;-78
2024/02/22 04:40:42;;;;;;;3.33;1.25;;;;;;;;;;5965051;24;20008;-78
2024/02/22 04:43:08;;;;;;;2.95;1.08;;;;;;;;;;5943422;24;20022;-78
2024/02/22 04:45:35;;;;;;;2.47;1.38;;;;;;;;;;5990160;24;20035;-78
2024/02/22 04:48:03;;;;;;;1.52;1.23;;;;;;;;;;5966158;24;20006;-77
2024/02/22 04:50:30;;;;;;;2.03;1.10;;;;;;;;;;5965911;24;20020;-81
2024/02/22 04:52:56;;;;;;;4.55;1.55;;;;;;;;;;5942544;23;20016;-79
2024/02/22 04:55:23;;;;;;;2.00;1.30;;;;;;;;;;5990058;23;20016;-78
2024/02/22 04:57:50;;;;;;;4.90;1.80;;;;;;;;;;5990269;24;20023;-80
2024/02/22 05:00:16;;;;;;;2.08;1.33;;;;;;;;;;5990568;24;20004;-78
2024/02/22 05:02:43;;;;;;;1.90;1.17;;;;;;;;;;5991437;24;20015;-80
2024/02/22 05:05:08;;;;;;;4.32;1.83;;;;;;;;;;5991350;24;20008;-79
2024/02/22 05:07:34;;;;;;;1.80;1.08;;;;;;;;;;5965465;24;20068;-78
2024/02/22 05:10:00;;;;;;;1.88;1.33;;;;;;;;;;5991192;24;20028;-76
2024/02/22 05:12:26;;;;;;;2.08;1.13;;;;;;;;;;5990518;24;20015;-79
2024/02/22 05:14:52;;;;;;;1.67;1.40;;;;;;;;;;5990255;24;20004;-79
2024/02/22 05:17:21;;;;;;;2.17;1.42;;;;;;;;;;5990041;24;20000;-80
2024/02/22 05:19:48;;;;;;;2.58;1.27;;;;;;;;;;5990510;24;20015;-77
2024/02/22 05:22:14;;;;;;;2.83;1.55;;;;;;;;;;5965494;24;20028;-77
2024/02/22 05:24:41;;;;;;;3.13;0.90;;;;;;;;;;5966387;24;20008;-80
2024/02/22 05:27:08;;;;;;;4.78;1.20;;;;;;;;;;5965314;24;20073;-77
2024/02/22 05:29:33;;;;;;;2.00;1.23;;;;;;;;;;5966354;24;20429;-77
2024/02/22 05:32:00;;;;;;;2.58;1.10;;;;;;;;;;5990772;24;20011;-80
2024/02/22 05:34:29;;;;;;;2.42;1.08;;;;;;;;;;5943104;24;20175;-79
2024/02/22 05:36:56;;;;;;;1.55;1.30;;;;;;;;;;5990307;24;20018;-78
2024/02/22 05:39:22;;;;;;;1.92;1.45;;;;;;;;;;5965443;24;20008;-78
2024/02/22 05:41:48;;;;;;;1.73;1.10;;;;;;;;;;5943284;24;20035;-77
2024/02/22 05:44:17;;;;;;;2.30;1.45;;;;;;;;;;5990503;24;20008;-78
2024/02/22 05:46:43;;;;;;;1.73;1.20;;;;;;;;;;5989766;24;20014;-77
2024/02/22 05:49:09;;;;;;;2.10;1.13;;;;;;;;;;5990718;24;20000;-77
2024/02/22 05:51:35;;;;;;;1.55;1.30;;;;;;;;;;5942190;24;20438;-80
2024/02/22 05:54:03;;;;;;;3.20;1.60;;;;;;;;;;5989766;23;20024;-80
2024/02/22 05:56:29;;;;;;;1.42;1.05;;;;;;;;;;5991018;24;20008;-78
2024/02/22 05:58:54;;;;;;;3.22;1.10;;;;;;;;;;5965284;24;20035;-79
2024/02/22 06:01:20;;;;;;;3.03;1.02;;;;;;;;;;5965715;24;20076;-77
2024/02/22 06:03:46;;;;;;;2.67;1.50;;;;;;;;;;5965815;24;20086;-79
2024/02/22 06:06:15;;;;;;;5.03;1.75;;;;;;;;;;5990526;24;20032;-80
2024/02/22 06:08:42;;;;;;;2.42;1.60;;;;;;;;;;5990559;24;20084;-78
2024/02/22 06:11:18;;;;;;;2.97;1.30;;;;;;;;;;5956934;24;20087;-78
2024/02/22 06:13:44;;;;;;;1.67;1.30;;;;;;;;;;5986817;24;20004;-81
2024/02/22 06:16:10;;;;;;;4.40;1.65;;;;;;;;;;5988995;24;20351;-78
2024/02/22 06:18:36;;;;;;;4.88;2.47;;;;;;;;;;5965206;24;20012;-78
2024/02/22 06:21:02;;;;;;;3.13;1.23;;;;;;;;;;5990249;24;20080;-78
2024/02/22 06:23:30;;;;;;;2.33;1.70;;;;;;;;;;5965978;24;20186;-78
2024/02/22 06:25:57;;;;;;;2.15;1.40;;;;;;;;;;5965785;24;20040;-76
2024/02/22 06:28:24;;;;;;;2.67;1.35;;;;;;;;;;5966350;24;20000;-79
2024/02/22 06:30:50;;;;;;;4.40;1.48;;;;;;;;;;5967027;24;20008;-79
2024/02/22 06:33:16;;;;;;;2.28;1.50;;;;;;;;;;5966237;24;20396;-78
2024/02/22 06:35:41;;;;;;;3.50;1.80;;;;;;;;;;5991321;24;20016;-80
2024/02/22 06:38:07;;;;;;;6.30;4.63;;;;;;;;;;5966287;24;20471;-78
2024/02/22 06:40:45;;;;;;;4.85;2.25;;;;;;;;;;5990757;24;20055;-78
2024/02/22 06:43:12;;;;;;;4.85;1.45;;;;;;;;;;5991060;24;20004;-79
2024/02/22 06:45:37;;;;;;;1.70;1.42;;;;;;;;;;5990071;24;20005;-78
2024/02/22 06:48:05;;;;;;;3.00;1.15;;;;;;;;;;5966125;24;20008;-79
2024/02/22 06:50:32;;;;;;;3.92;2.55;;;;;;;;;;5965446;24;20012;-78
2024/02/22 06:52:58;;;;;;;2.60;1.20;;;;;;;;;;5966030;23;20008;-79
2024/02/22 06:55:26;;;;;;;1.92;1.25;;;;;;;;;;5991041;23;20043;-80
2024/02/22 06:57:55;;;;;;;2.58;1.92;;;;;;;;;;5965669;24;20020;-77
2024/02/22 07:00:21;;;;;;;2.35;1.17;;;;;;;;;;5965555;24;20032;-78
2024/02/22 07:02:46;;;;;;;2.88;1.27;;;;;;;;;;5985835;24;20413;-78
2024/02/22 07:05:12;;;;;;;2.92;2.35;;;;;;;;;;5957329;24;20008;-78
2024/02/22 07:07:38;;;;;;;4.60;1.85;;;;;;;;;;5956376;24;20008;-81
2024/02/22 07:10:05;;;;;;;2.72;1.70;;;;;;;;;;5980091;24;20001;-81
2024/02/22 07:12:32;;;;;;;3.25;1.65;;;;;;;;;;5955899;24;20101;-78
2024/02/22 07:14:57;;;;;;;1.90;1.55;;;;;;;;;;5959356;24;20015;-79
2024/02/22 07:17:29;;;;;;;4.25;1.83;;;;;;;;;;5960082;24;20012;-78
2024/02/22 07:19:54;;;;;;;4.50;2.40;;;;;;;;;;5958613;24;20144;-79
2024/02/22 07:22:20;;;;;;;2.22;1.58;;;;;;;;;;5956352;24;20027;-78
2024/02/22 07:24:45;;;;;;;3.80;2.58;;;;;;;;;;5933207;24;20008;-77
2024/02/22 07:27:13;;;;;;;3.13;1.88;;;;;;;;;;5980969;24;20051;-77
2024/02/22 07:29:40;;;;;;;2.75;1.60;;;;;;;;;;5982575;24;20064;-78
2024/02/22 07:32:08;;;;;;;4.43;1.95;;;;;;;;;;5956779;24;20342;-78
2024/02/22 07:34:34;;;;;;;3.20;1.65;;;;;;;;;;5956386;24;20040;-78
2024/02/22 07:37:00;;;;;;;4.28;2.75;;;;;;;;;;5957030;24;20326;-76
2024/02/22 07:39:26;;;;;;;2.53;1.73;;;;;;;;;;5980143;24;20004;-76
2024/02/22 07:41:52;;;;;;;6.57;1.90;;;;;;;;;;5957734;24;20012;-79
2024/02/22 07:44:17;;;;;;;4.15;1.70;;;;;;;;;;5982933;24;20008;-77
2024/02/22 07:46:43;;;;;;;2.45;1.58;;;;;;;;;;5980283;24;20318;-79
2024/02/22 07:49:08;;;;;;;4.38;2.60;;;;;;;;;;5955505;24;20395;-78
2024/02/22 07:51:34;;;;;;;2.40;1.52;;;;;;;;;;5980702;24;20331;-78
2024/02/22 07:54:00;;;;;;;5.03;1.75;;;;;;;;;;5984515;23;20087;-77
2024/02/22 07:56:25;;;;;;;2.35;1.35;;;;;;;;;;5986439;24;20043;-80
2024/02/22 07:58:53;;;;;;;2.95;1.42;;;;;;;;;;5987005;24;20351;-83
2024/02/22 08:01:20;;;;;;;3.33;1.48;;;;;;;;;;5987185;24;20019;-80
2024/02/22 08:03:46;;;;;;;4.90;2.22;;;;;;;;;;5986245;24;20004;-82
2024/02/22 08:06:12;;;;;;;4.30;2.03;;;;;;;;;;5961327;24;20026;-80
2024/02/22 08:08:40;;;;;;;3.50;1.77;;;;;;;;;;5987270;24;20001;-80
2024/02/22 08:11:08;;;;;;;4.05;1.70;;;;;;;;;;5985511;24;20003;-81
2024/02/22 08:13:36;;;;;;;3.83;2.03;;;;;;;;;;5962070;24;20032;-81
2024/02/22 08:16:06;;;;;;;4.95;2.20;;;;;;;;;;5961381;24;20020;-80
2024/02/22 08:18:33;;;;;;;4.05;1.75;;;;;;;;;;5986114;24;20001;-83
2024/02/22 08:20:59;;;;;;;2.75;1.27;;;;;;;;;;5961526;24;20004;-81
2024/02/22 08:23:25;;;;;;;5.38;2.15;;;;;;;;;;5962233;24;20012;-82
2024/02/22 08:25:51;;;;;;;1.88;1.65;;;;;;;;;;5962421;24;20017;-79
2024/02/22 08:28:17;;;;;;;3.85;2.20;;;;;;;;;;5964809;24;20067;-83
2024/02/22 08:30:43;;;;;;;6.00;1.52;;;;;;;;;;5987741;24;20347;-82
2024/02/22 08:33:11;;;;;;;1.88;1.40;;;;;;;;;;5990171;24;20014;-84
2024/02/22 08:35:37;;;;;;;4.80;1.50;;;;;;;;;;5965978;24;20004;-83
2024/02/22 08:38:03;;;;;;;3.25;1.83;;;;;;;;;;5966547;24;20091;-84
2024/02/22 08:40:30;;;;;;;2.58;2.17;;;;;;;;;;5965522;24;20008;-83
2024/02/22 08:43:00;;;;;;;4.45;1.40;;;;;;;;;;5986815;24;20101;-80
2024/02/22 08:45:28;;;;;;;3.17;1.77;;;;;;;;;;5986983;24;20011;-81
2024/02/22 08:47:54;;;;;;;5.20;1.98;;;;;;;;;;5964288;24;20019;-82
2024/02/22 08:50:20;;;;;;;4.05;1.83;;;;;;;;;;5989309;24;20007;-81
2024/02/22 08:52:47;;;;;;;3.60;2.00;;;;;;;;;;5990334;23;20010;-82
2024/02/22 08:55:13;;;;;;;3.67;2.33;;;;;;;;;;5964557;24;20034;-82
2024/02/22 08:57:39;;;;;;;4.30;1.90;;;;;;;;;;5963447;24;19992;-83
2024/02/22 09:00:10;;;;;;;3.47;1.55;;;;;;;;;;5987321;24;20429;-81
2024/02/22 09:02:39;;;;;;;3.45;2.13;;;;;;;;;;5967756;24;20012;-80
2024/02/22 09:05:08;;;;;;;4.18;1.70;;;;;;;;;;5963131;24;20442;-83
2024/02/22 09:07:35;;;;;;;2.92;1.48;;;;;;;;;;5989282;24;20027;-85
2024/02/22 09:10:04;;;;;;;6.10;1.27;;;;;;;;;;5941141;24;20798;-82
2024/02/22 09:12:32;;;;;;;1.98;1.35;;;;;;;;;;5989581;24;20068;-83
2024/02/22 09:14:58;;;;;;;2.28;1.30;;;;;;;;;;5941603;24;20016;-83
2024/02/22 09:17:23;;;;;;;2.85;1.70;;;;;;;;;;5963138;24;20091;-84
2024/02/22 09:19:52;;;;;;;1.55;1.40;;;;;;;;;;5964949;24;20008;-84
2024/02/22 09:22:20;;;;;;;3.92;1.48;;;;;;;;;;5964622;24;20012;-81
2024/02/22 09:24:46;;;;;;;3.90;1.30;;;;;;;;;;5966491;24;20076;-84
2024/02/22 09:27:15;;;;;;;2.55;1.40;;;;;;;;;;5965683;24;20015;-82
2024/02/22 09:29:43;;;;;;;3.65;1.30;;;;;;;;;;5963345;24;20004;-83
2024/02/22 09:32:09;;;;;;;3.38;1.70;;;;;;;;;;5939947;24;20020;-81
2024/02/22 09:34:36;;;;;;;1.58;1.17;;;;;;;;;;5962906;24;20015;-84
2024/02/22 09:37:03;;;;;;;1.67;1.23;;;;;;;;;;5963292;24;20100;-84
2024/02/22 09:39:33;;;;;;;3.67;1.08;;;;;;;;;;5965354;24;20008;-83
2024/02/22 09:41:59;;;;;;;1.77;1.00;;;;;;;;;;5966610;24;20015;-83
2024/02/22 09:44:28;;;;;;;2.55;1.27;;;;;;;;;;5965669;24;20005;-84
2024/02/22 09:46:55;;;;;;;2.08;1.40;;;;;;;;;;5991190;24;20028;-84
2024/02/22 09:49:23;;;;;;;2.35;1.25;;;;;;;;;;5992344;24;20001;-81
2024/02/22 09:51:53;;;;;;;1.80;1.33;;;;;;;;;;5947239;24;20047;-82
2024/02/22 09:54:20;;;;;;;1.50;1.40;;;;;;;;;;5994266;23;20036;-85
2024/02/22 09:56:47;;;;;;;3.47;1.85;;;;;;;;;;5944910;24;20018;-82
2024/02/22 09:59:16;;;;;;;4.13;1.88;;;;;;;;;;5966584;24;20019;-83
2024/02/22 10:01:43;;;;;;;4.47;1.95;;;;;;;;;;5970269;24;20019;-84
2024/02/22 10:04:23;;;;;;;2.67;1.48;;;;;;;;;;5991658;24;20015;-86
2024/02/22 10:06:50;;;;;;;2.78;1.65;;;;;;;;;;5970961;24;20016;-86
2024/02/22 10:09:16;;;;;;;3.60;1.75;;;;;;;;;;5990784;24;20007;-84
2024/02/22 10:11:46;;;;;;;4.82;1.73;;;;;;;;;;5967597;24;20012;-83
2024/02/22 10:14:16;;;;;;;3.78;1.63;;;;;;;;;;5992953;24;20008;-82
2024/02/22 10:16:46;;;;;;;4.85;1.73;;;;;;;;;;5966602;24;20099;-83
2024/02/22 10:19:14;;;;;;;4.20;1.40;;;;;;;;;;5966671;24;20095;-83
2024/02/22 10:21:59;;;;;;;5.78;1.35;;;;;;;;;;5971627;24;20019;-83
2024/02/22 10:24:27;;;;;;;3.40;1.77;;;;;;;;;;5966318;24;20087;-83
2024/02/22 10:27:04;;;;;;;3.30;1.40;;;;;;;;;;5967140;24;20083;-83
2024/02/22 10:29:29;;;;;;;1.27;1.05;;;;;;;;;;5966819;24;20008;-83
2024/02/22 10:31:55;;;;;;;2.40;1.35;;;;;;;;;;5967041;24;20008;-82
2024/02/22 10:34:25;;;;;;;1.65;1.15;;;;;;;;;;5966558;24;20422;-83
2024/02/22 10:36:53;;;;;;;1.20;0.80;;;;;;;;;;5966472;24;20014;-84
2024/02/22 10:39:21;;;;;;;2.92;0.90;;;;;;;;;;5990072;24;20008;-84
2024/02/22 10:41:48;;;;;;;4.55;1.38;;;;;;;;;;5967899;24;20087;-83
2024/02/22 10:44:14;;;;;;;1.77;1.25;;;;;;;;;;5991841;24;20449;-82
2024/02/22 10:46:42;;;;;;;2.58;1.23;;;;;;;;;;5991438;24;20000;-81
2024/02/22 10:49:11;;;;;;;1.40;1.10;;;;;;;;;;5966284;24;20429;-82
2024/02/22 10:51:39;;;;;;;1.38;0.90;;;;;;;;;;5968096;24;20015;-85
2024/02/22 10:54:09;;;;;;;2.17;1.00;;;;;;;;;;5993304;23;20036;-83
2024/02/22 10:56:38;;;;;;;1.45;0.80;;;;;;;;;;5967288;24;20022;-83
2024/02/22 10:59:10;;;;;;;1.45;1.10;;;;;;;;;;5996036;24;20102;-86
2024/02/22 11:01:38;;;;;;;0.95;0.75;;;;;;;;;;5969181;24;20457;-84
2024/02/22 11:04:06;;;;;;;1.23;0.90;;;;;;;;;;5967147;24;20071;-81
2024/02/22 11:06:39;;;;;;;1.75;1.00;;;;;;;;;;5945616;24;20351;-83
2024/02/22 11:09:16;;;;;;;2.45;0.88;;;;;;;;;;5966256;24;20312;-81
2024/02/22 11:11:43;;;;;;;2.65;1.30;;;;;;;;;;5990986;24;20030;-83
2024/02/22 11:14:09;;;;;;;1.95;1.02;;;;;;;;;;5965548;24;20066;-83
2024/02/22 11:16:37;;;;;;;4.03;0.95;;;;;;;;;;5969204;24;20429;-84
2024/02/22 11:19:09;;;;;;;1.02;0.90;;;;;;;;;;5995836;24;20040;-84
2024/02/22 11:21:38;;;;;;;1.50;0.98;;;;;;;;;;5995657;24;20008;-84
2024/02/22 11:24:13;;;;;;;1.48;0.85;;;;;;;;;;5967487;24;20338;-82
2024/02/22 11:26:40;;;;;;;8.05;4.80;;;;;;;;;;5967266;24;20012;-81
2024/02/22 11:29:07;;;;;;;2.83;1.30;;;;;;;;;;5993584;24;20004;-83
2024/02/22 11:31:35;;;;;;;2.95;0.90;;;;;;;;;;5991061;24;20015;-84
2024/02/22 11:34:01;;;;;;;0.80;0.80;;;;;;;;;;5967641;24;20015;-84
2024/02/22 11:36:30;;;;;;;1.25;0.98;;;;;;;;;;5992962;24;20016;-84
2024/02/22 11:38:59;;;;;;;3.25;1.00;;;;;;;;;;5993914;24;20027;-83
2024/02/22 11:41:30;;;;;;;1.58;1.10;;;;;;;;;;5992538;24;20008;-84
2024/02/22 11:44:07;;;;;;;1.25;0.60;;;;;;;;;;5993431;24;20063;-84
2024/02/22 11:46:40;;;;;;;0.85;0.82;;;;;;;;;;5967631;24;20413;-81
2024/02/22 11:49:06;;;;;;;2.05;1.30;;;;;;;;;;5991370;24;20010;-84
2024/02/22 11:51:32;;;;;;;0.95;0.80;;;;;;;;;;5968096;24;20015;-82
2024/02/22 11:53:58;;;;;;;2.08;0.70;;;;;;;;;;5990589;23;20314;-81
2024/02/22 11:56:27;;;;;;;2.00;1.85;;;;;;;;;;5965184;24;20055;-83
2024/02/22 11:58:57;;;;;;;2.40;1.30;;;;;;;;;;5990726;24;20033;-83
2024/02/22 12:01:27;;;;;;;0.55;0.50;;;;;;;;;;5965738;24;20000;-84
2024/02/22 12:03:55;;;;;;;0.85;0.68;;;;;;;;;;5966428;24;20113;-82
2024/02/22 12:06:21;;;;;;;1.17;0.73;;;;;;;;;;5990551;24;20071;-83
2024/02/22 12:08:50;;;;;;;2.42;0.98;;;;;;;;;;5965182;24;20008;-82
2024/02/22 12:11:16;;;;;;;1.02;0.80;;;;;;;;;;5964242;24;20101;-81
2024/02/22 12:13:53;;;;;;;0.88;0.60;;;;;;;;;;5990685;24;20015;-81
2024/02/22 12:16:19;;;;;;;1.30;0.90;;;;;;;;;;5990236;24;20012;-84
2024/02/22 12:18:44;;;;;;;1.65;1.13;;;;;;;;;;5964156;24;20050;-83
2024/02/22 12:21:11;;;;;;;1.30;0.88;;;;;;;;;;5990831;24;20004;-84
2024/02/22 12:23:36;;;;;;;0.60;0.60;;;;;;;;;;5989811;24;20003;-82
2024/02/22 12:26:08;;;;;;;2.08;1.20;;;;;;;;;;5987163;24;20015;-83
2024/02/22 12:28:37;;;;;;;1.30;1.00;;;;;;;;;;5965138;24;20004;-82
2024/02/22 12:31:06;;;;;;;0.82;0.60;;;;;;;;;;5965872;24;20072;-80
2024/02/22 12:33:33;;;;;;;1.45;0.75;;;;;;;;;;5991433;24;20015;-82
2024/02/22 12:36:02;;;;;;;0.68;0.68;;;;;;;;;;5964632;24;20012;-82
2024/02/22 12:38:30;;;;;;;1.13;0.68;;;;;;;;;;5989502;24;20371;-83
2024/02/22 12:40:56;;;;;;;0.70;0.70;;;;;;;;;;5987252;24;20031;-80
2024/02/22 12:43:21;;;;;;;1.13;0.70;;;;;;;;;;5985922;24;20079;-79
2024/02/22 12:45:47;;;;;;;8.82;1.02;;;;;;;;;;5962815;24;20083;-81
2024/02/22 12:48:13;;;;;;;1.52;0.93;;;;;;;;;;5961367;24;20027;-80
2024/02/22 12:50:38;;;;;;;0.70;0.55;;;;;;;;;;5988537;24;20008;-87
2024/02/22 12:53:09;;;;;;;2.40;1.23;;;;;;;;;;5966904;24;20080;-82
2024/02/22 12:55:47;;;;;;;1.33;0.70;;;;;;;;;;5986273;23;20024;-80
2024/02/22 12:58:14;;;;;;;2.05;1.45;;;;;;;;;;5988504;24;20015;-81
2024/02/22 13:00:41;;;;;;;0.77;0.75;;;;;;;;;;5959674;24;20024;-81
2024/02/22 13:03:07;;;;;;;1.17;0.73;;;;;;;;;;5961078;24;20338;-81
2024/02/22 13:05:33;;;;;;;0.65;0.52;;;;;;;;;;5938756;24;20027;-81
2024/02/22 13:08:00;;;;;;;1.95;0.85;;;;;;;;;;5987200;24;20008;-82
2024/02/22 13:10:25;;;;;;;1.17;0.70;;;;;;;;;;5959759;24;20338;-81
2024/02/22 13:12:52;;;;;;;3.65;1.73;;;;;;;;;;5963122;24;20011;-81
2024/02/22 13:15:18;;;;;;;0.70;0.60;;;;;;;;;;5939527;24;20111;-82
2024/02/22 13:17:47;;;;;;;1.98;1.02;;;;;;;;;;5961183;24;20165;-82
2024/02/22 13:20:12;;;;;;;1.77;1.10;;;;;;;;;;5963800;24;20442;-83
2024/02/22 13:22:39;;;;;;;1.15;0.77;;;;;;;;;;5964429;24;20046;-84
2024/02/22 13:25:06;;;;;;;2.10;0.90;;;;;;;;;;5962694;24;20031;-83
2024/02/22 13:27:37;;;;;;;1.55;0.88;;;;;;;;;;5961745;24;20012;-82
2024/02/22 13:30:04;;;;;;;0.75;0.65;;;;;;;;;;5987927;24;20371;-82
2024/02/22 13:32:32;;;;;;;1.27;0.95;;;;;;;;;;5987286;24;20460;-82
2024/02/22 13:34:57;;;;;;;1.08;0.90;;;;;;;;;;5987231;24;20014;-82
2024/02/22 13:37:23;;;;;;;3.17;0.68;;;;;;;;;;5962767;24;20008;-83
2024/02/22 13:39:48;;;;;;;1.85;0.90;;;;;;;;;;5962139;24;20075;-83
2024/02/22 13:42:15;;;;;;;1.30;0.63;;;;;;;;;;5984931;24;20430;-85
2024/02/22 13:44:40;;;;;;;1.63;0.70;;;;;;;;;;5961246;24;20019;-82
2024/02/22 13:47:06;;;;;;;3.33;1.10;;;;;;;;;;5963142;24;20063;-83
2024/02/22 13:49:32;;;;;;;1.20;0.60;;;;;;;;;;5985711;24;20008;-84
2024/02/22 13:51:58;;;;;;;0.85;0.60;;;;;;;;;;5985449;24;20040;-83
2024/02/22 13:54:23;;;;;;;0.77;0.55;;;;;;;;;;5983283;23;20031;-85
2024/02/22 13:56:50;;;;;;;0.47;0.47;;;;;;;;;;5964385;24;20122;-83
2024/02/22 13:59:16;;;;;;;4.25;1.95;;;;;;;;;;5963684;24;20076;-83
2024/02/22 14:01:42;;;;;;;0.60;0.60;;;;;;;;;;5988208;24;20071;-84
2024/02/22 14:04:08;;;;;;;2.05;0.73;;;;;;;;;;5961621;24;20418;-84
2024/02/22 14:06:37;;;;;;;1.30;1.20;;;;;;;;;;5990464;24;20056;-83
2024/02/22 14:09:05;;;;;;;1.23;0.77;;;;;;;;;;5988431;24;20000;-85
2024/02/22 14:11:31;;;;;;;3.70;1.33;;;;;;;;;;5968479;24;20019;-85
2024/02/22 14:13:56;;;;;;;0.63;0.50;;;;;;;;;;5965727;24;20008;-86
2024/02/22 14:16:27;;;;;;;1.25;0.88;;;;;;;;;;5967278;24;20012;-84
2024/02/22 14:18:53;;;;;;;2.13;0.80;;;;;;;;;;5964241;24;20008;-84
2024/02/22 14:21:20;;;;;;;2.03;0.77;;;;;;;;;;5990020;24;20004;-84
2024/02/22 14:23:52;;;;;;;2.10;0.90;;;;;;;;;;5966048;24;20092;-85
2024/02/22 14:26:19;;;;;;;2.20;0.73;;;;;;;;;;5990951;24;20008;-87
2024/02/22 14:28:44;;;;;;;2.00;1.27;;;;;;;;;;5991807;24;20053;-85
2024/02/22 14:31:10;;;;;;;2.97;1.00;;;;;;;;;;5961648;24;20019;-81
2024/02/22 14:33:35;;;;;;;4.40;2.35;;;;;;;;;;5967645;24;20008;-84
2024/02/22 14:36:01;;;;;;;1.35;0.80;;;;;;;;;;5992064;24;20076;-87
2024/02/22 14:38:28;;;;;;;3.95;1.50;;;;;;;;;;5990542;24;20075;-82
2024/02/22 14:40:56;;;;;;;2.38;1.10;;;;;;;;;;5965962;24;20275;-82
2024/02/22 14:43:22;;;;;;;2.78;1.70;;;;;;;;;;5991771;24;20010;-82